PWSweather.com
Personal Weather Stations
Station Observations
ISTOCKPO4
Cheadle HulmeGB SK8 6NZ

Cheadle HulmeGB SK8 6NZ

Lat: 53.363783, Lon: -2.1948438

Elevation: 261

Station Type: Davis VP2 with Daytime FARS

http://www.cheadlehulmeweather.co.uk

High Low Average
Temperature 58.6°F14.8°C 43.3°F6.3°C 53.1°F11.7°C
Dew Point 53.8°F12.1°C 41.7°F5.4°C 49.8°F9.9°C
Winds 8.0 mph 12.9 kmh Calm Calm 3.0 mph SSW4.8 kmh SSW
Wind Gusts 14.0 mph22.5 kmh -- 6.0 mph9.7 kmh
Humidity 95% 80% 89%
Pressure 30.33 in1027.1 mb 29.95 in1014.2 mb -
Precipitation 0.00 in0.0 mm - -
Hour Temp Dew Point Humidity Winds Wind Gusts Pressure Precip Precip Rate Daily Precip Total
12:00 AM 54.1°F12.3°C 51.3°F10.7°C 90% 7.0 mph S11.3 kmh S 14.0 mph22.5 kmh 29.95 in1014.2 mb 0.00 in0.0 mm 0.00 in0.0 mm 0.00 in0.0 mm
12:15 AM 54.3°F12.4°C 51.1°F10.6°C 89% 6.0 mph S9.7 kmh S 12.0 mph19.3 kmh 29.95 in1014.2 mb 0.00 in0.0 mm 0.00 in0.0 mm 0.00 in0.0 mm
12:30 AM 54.3°F12.4°C 51.1°F10.6°C 89% 5.0 mph S8.0 kmh S 10.0 mph16.1 kmh 29.96 in1014.6 mb 0.00 in0.0 mm 0.00 in0.0 mm 0.00 in0.0 mm
12:45 AM 54.3°F12.4°C 50.8°F10.4°C 88% 6.0 mph S9.7 kmh S 11.0 mph17.7 kmh 29.96 in1014.6 mb 0.00 in0.0 mm 0.00 in0.0 mm 0.00 in0.0 mm
01:00 AM 54.3°F12.4°C 50.8°F10.4°C 88% 5.0 mph S8.0 kmh S 12.0 mph19.3 kmh 29.95 in1014.2 mb 0.00 in0.0 mm 0.00 in0.0 mm 0.00 in0.0 mm
01:15 AM 54.3°F12.4°C 50.8°F10.4°C 88% 5.0 mph S8.0 kmh S 10.0 mph16.1 kmh 29.95 in1014.2 mb 0.00 in0.0 mm 0.00 in0.0 mm 0.00 in0.0 mm
01:30 AM 54.3°F12.4°C 50.8°F10.4°C 88% 5.0 mph S8.0 kmh S 9.0 mph14.5 kmh 29.95 in1014.2 mb 0.00 in0.0 mm 0.00 in0.0 mm 0.00 in0.0 mm
01:45 AM 54.3°F12.4°C 51.1°F10.6°C 89% 5.0 mph S8.0 kmh S 10.0 mph16.1 kmh 29.95 in1014.2 mb 0.00 in0.0 mm 0.00 in0.0 mm 0.00 in0.0 mm
02:00 AM 54.3°F12.4°C 51.1°F10.6°C 89% 5.0 mph S8.0 kmh S 9.0 mph14.5 kmh 29.95 in1014.2 mb 0.00 in0.0 mm 0.00 in0.0 mm 0.00 in0.0 mm
02:15 AM 54.1°F12.3°C 51.3°F10.7°C 90% 4.0 mph S6.4 kmh S 8.0 mph12.9 kmh 29.96 in1014.6 mb 0.00 in0.0 mm 0.00 in0.0 mm 0.00 in0.0 mm
02:30 AM 54.1°F12.3°C 51.3°F10.7°C 90% 4.0 mph S6.4 kmh S 8.0 mph12.9 kmh 29.96 in1014.6 mb 0.00 in0.0 mm 0.00 in0.0 mm 0.00 in0.0 mm
02:45 AM 54.1°F12.3°C 51.6°F10.9°C 91% 7.0 mph S11.3 kmh S 12.0 mph19.3 kmh 29.96 in1014.6 mb 0.00 in0.0 mm 0.00 in0.0 mm 0.00 in0.0 mm
03:00 AM 53.8°F12.1°C 51.2°F10.7°C 91% 4.0 mph S6.4 kmh S 8.0 mph12.9 kmh 29.96 in1014.6 mb 0.00 in0.0 mm 0.00 in0.0 mm 0.00 in0.0 mm
03:15 AM 53.2°F11.8°C 50.7°F10.4°C 91% 3.0 mph S4.8 kmh S 8.0 mph12.9 kmh 29.96 in1014.6 mb 0.00 in0.0 mm 0.00 in0.0 mm 0.00 in0.0 mm
03:30 AM 53.1°F11.7°C 50.8°F10.4°C 92% 4.0 mph S6.4 kmh S 8.0 mph12.9 kmh 29.97 in1014.9 mb 0.00 in0.0 mm 0.00 in0.0 mm 0.00 in0.0 mm
03:45 AM 52.5°F11.4°C 50.3°F10.2°C 92% 3.0 mph S4.8 kmh S 4.0 mph6.4 kmh 29.97 in1014.9 mb 0.00 in0.0 mm 0.00 in0.0 mm 0.00 in0.0 mm
04:00 AM 52.3°F11.3°C 50.4°F10.2°C 93% 3.0 mph S4.8 kmh S 7.0 mph11.3 kmh 29.97 in1014.9 mb 0.00 in0.0 mm 0.00 in0.0 mm 0.00 in0.0 mm
04:15 AM 52.3°F11.3°C 50.4°F10.2°C 93% 2.0 mph S3.2 kmh S 5.0 mph8.0 kmh 29.98 in1015.2 mb 0.00 in0.0 mm 0.00 in0.0 mm 0.00 in0.0 mm
04:30 AM 52.3°F11.3°C 50.4°F10.2°C 93% 3.0 mph S4.8 kmh S 7.0 mph11.3 kmh 29.98 in1015.2 mb 0.00 in0.0 mm 0.00 in0.0 mm 0.00 in0.0 mm
04:45 AM 52.2°F11.2°C 50.2°F10.1°C 93% 3.0 mph S4.8 kmh S 7.0 mph11.3 kmh 29.98 in1015.2 mb 0.00 in0.0 mm 0.00 in0.0 mm 0.00 in0.0 mm
05:00 AM 52.0°F11.1°C 50.0°F10.0°C 93% 4.0 mph S6.4 kmh S 7.0 mph11.3 kmh 29.98 in1015.2 mb 0.00 in0.0 mm 0.00 in0.0 mm 0.00 in0.0 mm
05:15 AM 51.6°F10.9°C 49.7°F9.8°C 93% 2.0 mph S3.2 kmh S 8.0 mph12.9 kmh 29.99 in1015.6 mb 0.00 in0.0 mm 0.00 in0.0 mm 0.00 in0.0 mm
05:30 AM 51.4°F10.8°C 49.5°F9.7°C 93% 1.0 mph SW1.6 kmh SW 4.0 mph6.4 kmh 29.99 in1015.6 mb 0.00 in0.0 mm 0.00 in0.0 mm 0.00 in0.0 mm
05:45 AM 51.1°F10.6°C 49.1°F9.5°C 93% 1.0 mph SW1.6 kmh SW 3.0 mph4.8 kmh 30.00 in1015.9 mb 0.00 in0.0 mm 0.00 in0.0 mm 0.00 in0.0 mm
06:00 AM 51.1°F10.6°C 49.4°F9.7°C 94% 2.0 mph S3.2 kmh S 4.0 mph6.4 kmh 30.01 in1016.3 mb 0.00 in0.0 mm 0.00 in0.0 mm 0.00 in0.0 mm
06:15 AM 50.7°F10.4°C 49.1°F9.5°C 94% 2.0 mph S3.2 kmh S 3.0 mph4.8 kmh 30.01 in1016.3 mb 0.00 in0.0 mm 0.00 in0.0 mm 0.00 in0.0 mm
06:30 AM 50.5°F10.3°C 48.9°F9.4°C 94% 2.0 mph S3.2 kmh S 5.0 mph8.0 kmh 30.02 in1016.6 mb 0.00 in0.0 mm 0.00 in0.0 mm 0.00 in0.0 mm
06:45 AM 50.5°F10.3°C 48.9°F9.4°C 94% 2.0 mph S3.2 kmh S 3.0 mph4.8 kmh 30.02 in1016.6 mb 0.00 in0.0 mm 0.00 in0.0 mm 0.00 in0.0 mm
07:00 AM 50.4°F10.2°C 48.7°F9.3°C 94% Calm Calm -- 30.03 in1016.9 mb 0.00 in0.0 mm 0.00 in0.0 mm 0.00 in0.0 mm
07:15 AM 50.4°F10.2°C 48.7°F9.3°C 94% Calm Calm -- 30.03 in1016.9 mb 0.00 in0.0 mm 0.00 in0.0 mm 0.00 in0.0 mm
07:30 AM 50.5°F10.3°C 48.9°F9.4°C 94% 1.0 mph S1.6 kmh S 3.0 mph4.8 kmh 30.04 in1017.3 mb 0.00 in0.0 mm 0.00 in0.0 mm 0.00 in0.0 mm
07:45 AM 51.1°F10.6°C 49.4°F9.7°C 94% 2.0 mph S3.2 kmh S 4.0 mph6.4 kmh 30.05 in1017.6 mb 0.00 in0.0 mm 0.00 in0.0 mm 0.00 in0.0 mm
08:00 AM 51.6°F10.9°C 50.2°F10.1°C 95% 1.0 mph SW1.6 kmh SW 4.0 mph6.4 kmh 30.05 in1017.6 mb 0.00 in0.0 mm 0.00 in0.0 mm 0.00 in0.0 mm
08:15 AM 52.3°F11.3°C 51.0°F10.6°C 95% 1.0 mph SW1.6 kmh SW 3.0 mph4.8 kmh 30.06 in1017.9 mb 0.00 in0.0 mm 0.00 in0.0 mm 0.00 in0.0 mm
08:30 AM 52.7°F11.5°C 51.3°F10.7°C 95% Calm Calm 2.0 mph3.2 kmh 30.07 in1018.3 mb 0.00 in0.0 mm 0.00 in0.0 mm 0.00 in0.0 mm
08:45 AM 53.1°F11.7°C 51.7°F10.9°C 95% 2.0 mph SSE3.2 kmh SSE 4.0 mph6.4 kmh 30.07 in1018.3 mb 0.00 in0.0 mm 0.00 in0.0 mm 0.00 in0.0 mm
09:00 AM 53.6°F12.0°C 52.2°F11.2°C 95% 2.0 mph S3.2 kmh S 4.0 mph6.4 kmh 30.08 in1018.6 mb 0.00 in0.0 mm 0.00 in0.0 mm 0.00 in0.0 mm
09:15 AM 54.9°F12.7°C 53.2°F11.8°C 94% 1.0 mph SSW1.6 kmh SSW 4.0 mph6.4 kmh 30.08 in1018.6 mb 0.00 in0.0 mm 0.00 in0.0 mm 0.00 in0.0 mm
09:30 AM 55.8°F13.2°C 53.8°F12.1°C 93% 2.0 mph SW3.2 kmh SW 5.0 mph8.0 kmh 30.08 in1018.6 mb 0.00 in0.0 mm 0.00 in0.0 mm 0.00 in0.0 mm
09:45 AM 56.1°F13.4°C 53.2°F11.8°C 90% 2.0 mph W3.2 kmh W 4.0 mph6.4 kmh 30.09 in1019.0 mb 0.00 in0.0 mm 0.00 in0.0 mm 0.00 in0.0 mm
10:00 AM 56.7°F13.7°C 53.1°F11.7°C 88% 1.0 mph WSW1.6 kmh WSW 3.0 mph4.8 kmh 30.09 in1019.0 mb 0.00 in0.0 mm 0.00 in0.0 mm 0.00 in0.0 mm
10:15 AM 57.0°F13.9°C 53.2°F11.8°C 87% 1.0 mph NNW1.6 kmh NNW 6.0 mph9.7 kmh 30.10 in1019.3 mb 0.00 in0.0 mm 0.00 in0.0 mm 0.00 in0.0 mm
10:30 AM 57.2°F14.0°C 53.0°F11.7°C 86% 3.0 mph NW4.8 kmh NW 6.0 mph9.7 kmh 30.10 in1019.3 mb 0.00 in0.0 mm 0.00 in0.0 mm 0.00 in0.0 mm
10:45 AM 57.4°F14.1°C 52.6°F11.4°C 84% 3.0 mph NW4.8 kmh NW 6.0 mph9.7 kmh 30.11 in1019.6 mb 0.00 in0.0 mm 0.00 in0.0 mm 0.00 in0.0 mm
11:00 AM 58.1°F14.5°C 53.0°F11.7°C 83% 2.0 mph NW3.2 kmh NW 4.0 mph6.4 kmh 30.11 in1019.6 mb 0.00 in0.0 mm 0.00 in0.0 mm 0.00 in0.0 mm
11:15 AM 58.6°F14.8°C 53.2°F11.8°C 82% 3.0 mph WNW4.8 kmh WNW 7.0 mph11.3 kmh 30.11 in1019.6 mb 0.00 in0.0 mm 0.00 in0.0 mm 0.00 in0.0 mm
11:30 AM 58.5°F14.7°C 53.3°F11.8°C 83% 3.0 mph NW4.8 kmh NW 5.0 mph8.0 kmh 30.11 in1019.6 mb 0.00 in0.0 mm 0.00 in0.0 mm 0.00 in0.0 mm
11:45 AM 58.3°F14.6°C 52.8°F11.6°C 82% 3.0 mph NW4.8 kmh NW 8.0 mph12.9 kmh 30.12 in1020.0 mb 0.00 in0.0 mm 0.00 in0.0 mm 0.00 in0.0 mm
12:00 PM 57.7°F14.3°C 52.3°F11.3°C 82% 4.0 mph NW6.4 kmh NW 7.0 mph11.3 kmh 30.12 in1020.0 mb 0.00 in0.0 mm 0.00 in0.0 mm 0.00 in0.0 mm
12:15 PM 57.6°F14.2°C 52.4°F11.3°C 83% 4.0 mph NW6.4 kmh NW 8.0 mph12.9 kmh 30.12 in1020.0 mb 0.00 in0.0 mm 0.00 in0.0 mm 0.00 in0.0 mm
12:30 PM 57.7°F14.3°C 52.9°F11.6°C 84% 2.0 mph NW3.2 kmh NW 5.0 mph8.0 kmh 30.12 in1020.0 mb 0.00 in0.0 mm 0.00 in0.0 mm 0.00 in0.0 mm
12:45 PM 58.5°F14.7°C 53.3°F11.8°C 83% 4.0 mph NW6.4 kmh NW 8.0 mph12.9 kmh 30.12 in1020.0 mb 0.00 in0.0 mm 0.00 in0.0 mm 0.00 in0.0 mm
01:00 PM 58.5°F14.7°C 52.6°F11.4°C 81% 8.0 mph NW12.9 kmh NW 12.0 mph19.3 kmh 30.12 in1020.0 mb 0.00 in0.0 mm 0.00 in0.0 mm 0.00 in0.0 mm
01:15 PM 58.6°F14.8°C 53.2°F11.8°C 82% 7.0 mph NW11.3 kmh NW 13.0 mph20.9 kmh 30.12 in1020.0 mb 0.00 in0.0 mm 0.00 in0.0 mm 0.00 in0.0 mm
01:30 PM 58.6°F14.8°C 52.8°F11.6°C 81% 7.0 mph WNW11.3 kmh WNW 11.0 mph17.7 kmh 30.12 in1020.0 mb 0.00 in0.0 mm 0.00 in0.0 mm 0.00 in0.0 mm
01:45 PM 58.5°F14.7°C 52.6°F11.4°C 81% 6.0 mph NW9.7 kmh NW 11.0 mph17.7 kmh 30.13 in1020.3 mb 0.00 in0.0 mm 0.00 in0.0 mm 0.00 in0.0 mm
02:00 PM 58.3°F14.6°C 52.5°F11.4°C 81% 7.0 mph NW11.3 kmh NW 13.0 mph20.9 kmh 30.13 in1020.3 mb 0.00 in0.0 mm 0.00 in0.0 mm 0.00 in0.0 mm
02:15 PM 58.3°F14.6°C 52.1°F11.2°C 80% 4.0 mph NW6.4 kmh NW 10.0 mph16.1 kmh 30.14 in1020.7 mb 0.00 in0.0 mm 0.00 in0.0 mm 0.00 in0.0 mm
02:30 PM 58.3°F14.6°C 52.1°F11.2°C 80% 5.0 mph WNW8.0 kmh WNW 10.0 mph16.1 kmh 30.14 in1020.7 mb 0.00 in0.0 mm 0.00 in0.0 mm 0.00 in0.0 mm
02:45 PM 57.7°F14.3°C 52.3°F11.3°C 82% 6.0 mph NW9.7 kmh NW 11.0 mph17.7 kmh 30.14 in1020.7 mb 0.00 in0.0 mm 0.00 in0.0 mm 0.00 in0.0 mm
03:00 PM 57.6°F14.2°C 51.8°F11.0°C 81% 7.0 mph WNW11.3 kmh WNW 11.0 mph17.7 kmh 30.15 in1021.0 mb 0.00 in0.0 mm 0.00 in0.0 mm 0.00 in0.0 mm
03:15 PM 57.6°F14.2°C 51.8°F11.0°C 81% 4.0 mph NW6.4 kmh NW 10.0 mph16.1 kmh 30.15 in1021.0 mb 0.00 in0.0 mm 0.00 in0.0 mm 0.00 in0.0 mm
03:30 PM 57.6°F14.2°C 51.4°F10.8°C 80% 6.0 mph NW9.7 kmh NW 11.0 mph17.7 kmh 30.16 in1021.3 mb 0.00 in0.0 mm 0.00 in0.0 mm 0.00 in0.0 mm
03:45 PM 57.4°F14.1°C 51.3°F10.7°C 80% 5.0 mph NW8.0 kmh NW 12.0 mph19.3 kmh 30.17 in1021.7 mb 0.00 in0.0 mm 0.00 in0.0 mm 0.00 in0.0 mm
04:00 PM 57.0°F13.9°C 51.2°F10.7°C 81% 5.0 mph NW8.0 kmh NW 10.0 mph16.1 kmh 30.17 in1021.7 mb 0.00 in0.0 mm 0.00 in0.0 mm 0.00 in0.0 mm
04:15 PM 57.0°F13.9°C 51.6°F10.9°C 82% 4.0 mph NW6.4 kmh NW 8.0 mph12.9 kmh 30.17 in1021.7 mb 0.00 in0.0 mm 0.00 in0.0 mm 0.00 in0.0 mm
04:30 PM 57.0°F13.9°C 51.6°F10.9°C 82% 4.0 mph NW6.4 kmh NW 8.0 mph12.9 kmh 30.18 in1022.0 mb 0.00 in0.0 mm 0.00 in0.0 mm 0.00 in0.0 mm
04:45 PM 56.5°F13.6°C 51.1°F10.6°C 82% 5.0 mph WNW8.0 kmh WNW 9.0 mph14.5 kmh 30.18 in1022.0 mb 0.00 in0.0 mm 0.00 in0.0 mm 0.00 in0.0 mm
05:00 PM 55.6°F13.1°C 50.2°F10.1°C 82% 5.0 mph WNW8.0 kmh WNW 10.0 mph16.1 kmh 30.19 in1022.4 mb 0.00 in0.0 mm 0.00 in0.0 mm 0.00 in0.0 mm
05:15 PM 54.7°F12.6°C 49.6°F9.8°C 83% 4.0 mph WNW6.4 kmh WNW 6.0 mph9.7 kmh 30.20 in1022.7 mb 0.00 in0.0 mm 0.00 in0.0 mm 0.00 in0.0 mm
05:30 PM 54.1°F12.3°C 49.7°F9.8°C 85% 3.0 mph W4.8 kmh W 5.0 mph8.0 kmh 30.20 in1022.7 mb 0.00 in0.0 mm 0.00 in0.0 mm 0.00 in0.0 mm
05:45 PM 53.4°F11.9°C 49.3°F9.6°C 86% 3.0 mph NW4.8 kmh NW 6.0 mph9.7 kmh 30.21 in1023.0 mb 0.00 in0.0 mm 0.00 in0.0 mm 0.00 in0.0 mm
06:00 PM 53.1°F11.7°C 49.3°F9.6°C 87% 2.0 mph W3.2 kmh W 4.0 mph6.4 kmh 30.22 in1023.4 mb 0.00 in0.0 mm 0.00 in0.0 mm 0.00 in0.0 mm
06:15 PM 52.3°F11.3°C 48.9°F9.4°C 88% 2.0 mph WNW3.2 kmh WNW 3.0 mph4.8 kmh 30.23 in1023.7 mb 0.00 in0.0 mm 0.00 in0.0 mm 0.00 in0.0 mm
06:30 PM 51.8°F11.0°C 48.7°F9.3°C 89% 2.0 mph NW3.2 kmh NW 4.0 mph6.4 kmh 30.23 in1023.7 mb 0.00 in0.0 mm 0.00 in0.0 mm 0.00 in0.0 mm
06:45 PM 51.3°F10.7°C 48.4°F9.1°C 90% 2.0 mph WNW3.2 kmh WNW 3.0 mph4.8 kmh 30.24 in1024.0 mb 0.00 in0.0 mm 0.00 in0.0 mm 0.00 in0.0 mm
07:00 PM 50.9°F10.5°C 48.1°F8.9°C 90% 3.0 mph NW4.8 kmh NW 5.0 mph8.0 kmh 30.25 in1024.4 mb 0.00 in0.0 mm 0.00 in0.0 mm 0.00 in0.0 mm
07:15 PM 50.7°F10.4°C 48.2°F9.0°C 91% 3.0 mph NW4.8 kmh NW 5.0 mph8.0 kmh 30.26 in1024.7 mb 0.00 in0.0 mm 0.00 in0.0 mm 0.00 in0.0 mm
07:30 PM 50.4°F10.2°C 47.8°F8.8°C 91% 2.0 mph NW3.2 kmh NW 5.0 mph8.0 kmh 30.26 in1024.7 mb 0.00 in0.0 mm 0.00 in0.0 mm 0.00 in0.0 mm
07:45 PM 49.8°F9.9°C 47.3°F8.5°C 91% 1.0 mph NW1.6 kmh NW 4.0 mph6.4 kmh 30.26 in1024.7 mb 0.00 in0.0 mm 0.00 in0.0 mm 0.00 in0.0 mm
08:00 PM 49.1°F9.5°C 46.6°F8.1°C 91% Calm Calm -- 30.27 in1025.1 mb 0.00 in0.0 mm 0.00 in0.0 mm 0.00 in0.0 mm
08:15 PM 48.6°F9.2°C 46.3°F7.9°C 92% Calm Calm -- 30.28 in1025.4 mb 0.00 in0.0 mm 0.00 in0.0 mm 0.00 in0.0 mm
08:30 PM 48.0°F8.9°C 45.8°F7.7°C 92% Calm Calm -- 30.28 in1025.4 mb 0.00 in0.0 mm 0.00 in0.0 mm 0.00 in0.0 mm
08:45 PM 47.5°F8.6°C 45.3°F7.4°C 92% Calm Calm 3.0 mph4.8 kmh 30.28 in1025.4 mb 0.00 in0.0 mm 0.00 in0.0 mm 0.00 in0.0 mm
09:00 PM 46.8°F8.2°C 44.6°F7.0°C 92% Calm Calm -- 30.29 in1025.7 mb 0.00 in0.0 mm 0.00 in0.0 mm 0.00 in0.0 mm
09:15 PM 46.6°F8.1°C 44.7°F7.1°C 93% Calm Calm -- 30.29 in1025.7 mb 0.00 in0.0 mm 0.00 in0.0 mm 0.00 in0.0 mm
09:30 PM 46.6°F8.1°C 44.7°F7.1°C 93% Calm Calm -- 30.30 in1026.1 mb 0.00 in0.0 mm 0.00 in0.0 mm 0.00 in0.0 mm
09:45 PM 45.9°F7.7°C 44.0°F6.7°C 93% Calm Calm 3.0 mph4.8 kmh 30.30 in1026.1 mb 0.00 in0.0 mm 0.00 in0.0 mm 0.00 in0.0 mm
10:00 PM 45.3°F7.4°C 43.4°F6.3°C 93% Calm Calm 5.0 mph8.0 kmh 30.31 in1026.4 mb 0.00 in0.0 mm 0.00 in0.0 mm 0.00 in0.0 mm
10:15 PM 45.7°F7.6°C 43.8°F6.6°C 93% Calm Calm 2.0 mph3.2 kmh 30.31 in1026.4 mb 0.00 in0.0 mm 0.00 in0.0 mm 0.00 in0.0 mm
10:30 PM 45.3°F7.4°C 43.4°F6.3°C 93% Calm Calm -- 30.32 in1026.8 mb 0.00 in0.0 mm 0.00 in0.0 mm 0.00 in0.0 mm
10:45 PM 45.1°F7.3°C 43.2°F6.2°C 93% Calm Calm 1.0 mph1.6 kmh 30.32 in1026.8 mb 0.00 in0.0 mm 0.00 in0.0 mm 0.00 in0.0 mm
11:00 PM 44.8°F7.1°C 43.2°F6.2°C 94% 1.0 mph SSW1.6 kmh SSW 4.0 mph6.4 kmh 30.32 in1026.8 mb 0.00 in0.0 mm 0.00 in0.0 mm 0.00 in0.0 mm
11:15 PM 44.2°F6.8°C 42.6°F5.9°C 94% Calm Calm -- 30.32 in1026.8 mb 0.00 in0.0 mm 0.00 in0.0 mm 0.00 in0.0 mm
11:30 PM 43.9°F6.6°C 42.0°F5.6°C 93% Calm Calm -- 30.33 in1027.1 mb 0.00 in0.0 mm 0.00 in0.0 mm 0.00 in0.0 mm
11:45 PM 43.3°F6.3°C 41.7°F5.4°C 94% Calm Calm -- 30.33 in1027.1 mb 0.00 in0.0 mm 0.00 in0.0 mm 0.00 in0.0 mm